sensor_id;sensor_type;location;lat;lon;timestamp;P1;durP1;ratioP1;P2;durP2;ratioP2
4084;SDS011;2057;50.858;6.572;2023-04-24T00:01:06;1.33;;;1.23;;
4084;SDS011;2057;50.858;6.572;2023-04-24T00:03:32;1.53;;;1.10;;
4084;SDS011;2057;50.858;6.572;2023-04-24T00:05:57;1.30;;;1.20;;
4084;SDS011;2057;50.858;6.572;2023-04-24T00:08:23;3.07;;;1.47;;
4084;SDS011;2057;50.858;6.572;2023-04-24T00:10:49;4.00;;;1.70;;
4084;SDS011;2057;50.858;6.572;2023-04-24T00:13:15;1.73;;;1.60;;
4084;SDS011;2057;50.858;6.572;2023-04-24T00:15:40;3.13;;;1.50;;
4084;SDS011;2057;50.858;6.572;2023-04-24T00:18:05;1.50;;;1.40;;
4084;SDS011;2057;50.858;6.572;2023-04-24T00:20:31;1.70;;;1.60;;
4084;SDS011;2057;50.858;6.572;2023-04-24T00:23:00;2.10;;;1.40;;
4084;SDS011;2057;50.858;6.572;2023-04-24T00:25:26;1.60;;;1.13;;
4084;SDS011;2057;50.858;6.572;2023-04-24T00:27:51;2.70;;;1.77;;
4084;SDS011;2057;50.858;6.572;2023-04-24T00:30:16;2.23;;;1.70;;
4084;SDS011;2057;50.858;6.572;2023-04-24T00:32:44;1.53;;;1.43;;
4084;SDS011;2057;50.858;6.572;2023-04-24T00:35:09;1.90;;;1.70;;
4084;SDS011;2057;50.858;6.572;2023-04-24T00:37:35;1.30;;;1.20;;
4084;SDS011;2057;50.858;6.572;2023-04-24T00:40:01;3.33;;;1.57;;
4084;SDS011;2057;50.858;6.572;2023-04-24T00:42:27;3.03;;;1.63;;
4084;SDS011;2057;50.858;6.572;2023-04-24T00:44:53;2.30;;;1.43;;
4084;SDS011;2057;50.858;6.572;2023-04-24T00:47:18;2.70;;;1.97;;
4084;SDS011;2057;50.858;6.572;2023-04-24T00:49:44;3.07;;;2.00;;
4084;SDS011;2057;50.858;6.572;2023-04-24T00:52:11;3.07;;;2.50;;
4084;SDS011;2057;50.858;6.572;2023-04-24T00:54:37;6.23;;;3.10;;
4084;SDS011;2057;50.858;6.572;2023-04-24T00:57:02;4.00;;;2.67;;
4084;SDS011;2057;50.858;6.572;2023-04-24T00:59:28;5.67;;;2.70;;
4084;SDS011;2057;50.858;6.572;2023-04-24T01:01:54;6.03;;;3.80;;
4084;SDS011;2057;50.858;6.572;2023-04-24T01:04:22;7.93;;;4.27;;
4084;SDS011;2057;50.858;6.572;2023-04-24T01:06:48;6.03;;;4.43;;
4084;SDS011;2057;50.858;6.572;2023-04-24T01:09:15;6.00;;;4.33;;
4084;SDS011;2057;50.858;6.572;2023-04-24T01:11:42;10.33;;;4.93;;
4084;SDS011;2057;50.858;6.572;2023-04-24T01:14:08;10.23;;;5.80;;
4084;SDS011;2057;50.858;6.572;2023-04-24T01:16:33;8.10;;;4.53;;
4084;SDS011;2057;50.858;6.572;2023-04-24T01:18:59;6.30;;;5.10;;
4084;SDS011;2057;50.858;6.572;2023-04-24T01:21:25;6.30;;;4.60;;
4084;SDS011;2057;50.858;6.572;2023-04-24T01:23:52;6.67;;;4.80;;
4084;SDS011;2057;50.858;6.572;2023-04-24T01:26:18;7.30;;;5.00;;
4084;SDS011;2057;50.858;6.572;2023-04-24T01:28:45;5.97;;;4.53;;
4084;SDS011;2057;50.858;6.572;2023-04-24T01:31:11;13.13;;;5.37;;
4084;SDS011;2057;50.858;6.572;2023-04-24T01:33:36;10.60;;;5.60;;
4084;SDS011;2057;50.858;6.572;2023-04-24T01:36:02;6.17;;;5.40;;
4084;SDS011;2057;50.858;6.572;2023-04-24T01:38:28;12.53;;;7.00;;
4084;SDS011;2057;50.858;6.572;2023-04-24T01:40:53;15.40;;;6.70;;
4084;SDS011;2057;50.858;6.572;2023-04-24T01:43:18;6.73;;;5.70;;
4084;SDS011;2057;50.858;6.572;2023-04-24T01:45:44;8.30;;;6.47;;
4084;SDS011;2057;50.858;6.572;2023-04-24T01:48:11;15.50;;;6.90;;
4084;SDS011;2057;50.858;6.572;2023-04-24T01:50:37;18.80;;;8.60;;
4084;SDS011;2057;50.858;6.572;2023-04-24T01:53:02;11.83;;;7.20;;
4084;SDS011;2057;50.858;6.572;2023-04-24T01:55:27;9.93;;;6.93;;
4084;SDS011;2057;50.858;6.572;2023-04-24T01:57:55;10.30;;;7.10;;
4084;SDS011;2057;50.858;6.572;2023-04-24T02:00:21;10.73;;;7.23;;
4084;SDS011;2057;50.858;6.572;2023-04-24T02:02:47;8.13;;;6.60;;
4084;SDS011;2057;50.858;6.572;2023-04-24T02:05:12;10.00;;;6.17;;
4084;SDS011;2057;50.858;6.572;2023-04-24T02:07:37;11.77;;;7.67;;
4084;SDS011;2057;50.858;6.572;2023-04-24T02:10:03;7.40;;;6.20;;
4084;SDS011;2057;50.858;6.572;2023-04-24T02:12:29;9.40;;;7.57;;
4084;SDS011;2057;50.858;6.572;2023-04-24T02:14:54;10.40;;;7.30;;
4084;SDS011;2057;50.858;6.572;2023-04-24T02:17:20;11.70;;;6.63;;
4084;SDS011;2057;50.858;6.572;2023-04-24T02:19:45;9.50;;;7.10;;
4084;SDS011;2057;50.858;6.572;2023-04-24T02:22:11;15.93;;;7.77;;
4084;SDS011;2057;50.858;6.572;2023-04-24T02:24:37;8.30;;;7.23;;
4084;SDS011;2057;50.858;6.572;2023-04-24T02:27:03;12.70;;;7.90;;
4084;SDS011;2057;50.858;6.572;2023-04-24T02:29:28;12.10;;;7.80;;
4084;SDS011;2057;50.858;6.572;2023-04-24T02:31:53;15.30;;;8.00;;
4084;SDS011;2057;50.858;6.572;2023-04-24T02:34:19;11.57;;;8.87;;
4084;SDS011;2057;50.858;6.572;2023-04-24T02:36:46;17.53;;;10.03;;
4084;SDS011;2057;50.858;6.572;2023-04-24T02:39:12;17.43;;;8.67;;
4084;SDS011;2057;50.858;6.572;2023-04-24T02:41:38;16.00;;;9.30;;
4084;SDS011;2057;50.858;6.572;2023-04-24T02:44:03;29.63;;;9.60;;
4084;SDS011;2057;50.858;6.572;2023-04-24T02:46:29;16.70;;;9.30;;
4084;SDS011;2057;50.858;6.572;2023-04-24T02:48:55;17.20;;;9.40;;
4084;SDS011;2057;50.858;6.572;2023-04-24T02:51:20;20.40;;;9.83;;
4084;SDS011;2057;50.858;6.572;2023-04-24T02:53:45;15.73;;;9.90;;
4084;SDS011;2057;50.858;6.572;2023-04-24T02:56:13;19.73;;;9.07;;
4084;SDS011;2057;50.858;6.572;2023-04-24T02:58:38;19.80;;;9.30;;
4084;SDS011;2057;50.858;6.572;2023-04-24T03:01:04;13.73;;;8.80;;
4084;SDS011;2057;50.858;6.572;2023-04-24T03:03:29;13.47;;;9.23;;
4084;SDS011;2057;50.858;6.572;2023-04-24T03:05:55;19.40;;;9.90;;
4084;SDS011;2057;50.858;6.572;2023-04-24T03:08:20;17.57;;;8.70;;
4084;SDS011;2057;50.858;6.572;2023-04-24T03:10:46;19.93;;;9.20;;
4084;SDS011;2057;50.858;6.572;2023-04-24T03:13:11;16.83;;;8.80;;
4084;SDS011;2057;50.858;6.572;2023-04-24T03:15:36;14.63;;;8.50;;
4084;SDS011;2057;50.858;6.572;2023-04-24T03:18:02;18.30;;;8.83;;
4084;SDS011;2057;50.858;6.572;2023-04-24T03:20:27;23.90;;;9.23;;
4084;SDS011;2057;50.858;6.572;2023-04-24T03:22:53;14.90;;;7.90;;
4084;SDS011;2057;50.858;6.572;2023-04-24T03:25:18;12.40;;;8.63;;
4084;SDS011;2057;50.858;6.572;2023-04-24T03:27:43;18.27;;;7.90;;
4084;SDS011;2057;50.858;6.572;2023-04-24T03:30:09;13.00;;;8.33;;
4084;SDS011;2057;50.858;6.572;2023-04-24T03:32:35;15.23;;;8.83;;
4084;SDS011;2057;50.858;6.572;2023-04-24T03:35:00;14.63;;;8.20;;
4084;SDS011;2057;50.858;6.572;2023-04-24T03:37:26;14.00;;;7.70;;
4084;SDS011;2057;50.858;6.572;2023-04-24T03:39:51;10.37;;;7.77;;
4084;SDS011;2057;50.858;6.572;2023-04-24T03:42:17;13.90;;;6.80;;
4084;SDS011;2057;50.858;6.572;2023-04-24T03:44:42;8.27;;;6.50;;
4084;SDS011;2057;50.858;6.572;2023-04-24T03:47:07;19.70;;;9.33;;
4084;SDS011;2057;50.858;6.572;2023-04-24T03:49:33;10.73;;;8.17;;
4084;SDS011;2057;50.858;6.572;2023-04-24T03:51:58;20.80;;;9.63;;
4084;SDS011;2057;50.858;6.572;2023-04-24T03:54:23;17.80;;;8.60;;
4084;SDS011;2057;50.858;6.572;2023-04-24T03:56:49;13.37;;;8.07;;
4084;SDS011;2057;50.858;6.572;2023-04-24T03:59:14;10.87;;;7.50;;
4084;SDS011;2057;50.858;6.572;2023-04-24T04:01:40;15.70;;;8.47;;
4084;SDS011;2057;50.858;6.572;2023-04-24T04:04:05;9.03;;;7.23;;
4084;SDS011;2057;50.858;6.572;2023-04-24T04:06:34;10.10;;;6.43;;
4084;SDS011;2057;50.858;6.572;2023-04-24T04:09:01;8.63;;;6.03;;
4084;SDS011;2057;50.858;6.572;2023-04-24T04:11:27;9.30;;;6.30;;
4084;SDS011;2057;50.858;6.572;2023-04-24T04:13:52;9.50;;;6.97;;
4084;SDS011;2057;50.858;6.572;2023-04-24T04:21:27;9.67;;;6.60;;
4084;SDS011;2057;50.858;6.572;2023-04-24T04:23:53;9.20;;;6.17;;
4084;SDS011;2057;50.858;6.572;2023-04-24T04:26:18;11.67;;;7.00;;
4084;SDS011;2057;50.858;6.572;2023-04-24T04:28:46;13.93;;;6.77;;
4084;SDS011;2057;50.858;6.572;2023-04-24T04:31:12;8.77;;;6.90;;
4084;SDS011;2057;50.858;6.572;2023-04-24T04:33:38;8.73;;;6.20;;
4084;SDS011;2057;50.858;6.572;2023-04-24T04:36:04;10.43;;;7.87;;
4084;SDS011;2057;50.858;6.572;2023-04-24T04:38:30;11.60;;;6.60;;
4084;SDS011;2057;50.858;6.572;2023-04-24T04:40:57;12.13;;;6.97;;
4084;SDS011;2057;50.858;6.572;2023-04-24T04:43:23;17.60;;;7.50;;
4084;SDS011;2057;50.858;6.572;2023-04-24T04:45:49;10.70;;;6.57;;
4084;SDS011;2057;50.858;6.572;2023-04-24T04:48:16;12.97;;;6.90;;
4084;SDS011;2057;50.858;6.572;2023-04-24T04:50:42;10.80;;;7.30;;
4084;SDS011;2057;50.858;6.572;2023-04-24T04:53:08;10.90;;;6.30;;
4084;SDS011;2057;50.858;6.572;2023-04-24T04:55:33;12.70;;;7.70;;
4084;SDS011;2057;50.858;6.572;2023-04-24T04:57:58;15.87;;;7.50;;
4084;SDS011;2057;50.858;6.572;2023-04-24T05:00:25;12.67;;;7.17;;
4084;SDS011;2057;50.858;6.572;2023-04-24T05:02:51;16.40;;;7.47;;
4084;SDS011;2057;50.858;6.572;2023-04-24T05:05:16;18.03;;;8.20;;
4084;SDS011;2057;50.858;6.572;2023-04-24T05:07:42;23.13;;;7.17;;
4084;SDS011;2057;50.858;6.572;2023-04-24T05:10:08;8.60;;;6.67;;
4084;SDS011;2057;50.858;6.572;2023-04-24T05:12:34;15.93;;;7.17;;
4084;SDS011;2057;50.858;6.572;2023-04-24T05:14:59;10.33;;;7.87;;
4084;SDS011;2057;50.858;6.572;2023-04-24T05:17:25;17.70;;;7.90;;
4084;SDS011;2057;50.858;6.572;2023-04-24T05:19:50;15.20;;;8.33;;
4084;SDS011;2057;50.858;6.572;2023-04-24T05:42:57;5.93;;;5.10;;
4084;SDS011;2057;50.858;6.572;2023-04-24T05:45:22;9.93;;;5.83;;
4084;SDS011;2057;50.858;6.572;2023-04-24T05:47:48;5.23;;;4.40;;
4084;SDS011;2057;50.858;6.572;2023-04-24T05:50:13;8.07;;;4.60;;
4084;SDS011;2057;50.858;6.572;2023-04-24T05:52:41;6.03;;;4.07;;
4084;SDS011;2057;50.858;6.572;2023-04-24T05:55:06;8.70;;;4.40;;
4084;SDS011;2057;50.858;6.572;2023-04-24T05:57:32;5.90;;;3.67;;
4084;SDS011;2057;50.858;6.572;2023-04-24T05:59:58;6.20;;;3.70;;
4084;SDS011;2057;50.858;6.572;2023-04-24T06:02:23;4.60;;;3.07;;
4084;SDS011;2057;50.858;6.572;2023-04-24T06:04:48;8.70;;;3.30;;
4084;SDS011;2057;50.858;6.572;2023-04-24T06:07:14;5.23;;;3.20;;
4084;SDS011;2057;50.858;6.572;2023-04-24T06:09:39;2.17;;;2.07;;
4084;SDS011;2057;50.858;6.572;2023-04-24T06:12:04;5.60;;;2.50;;
4084;SDS011;2057;50.858;6.572;2023-04-24T06:14:32;4.32;;;3.60;;
4084;SDS011;2057;50.858;6.572;2023-04-24T06:16:57;3.93;;;2.10;;
4084;SDS011;2057;50.858;6.572;2023-04-24T06:19:23;7.00;;;3.47;;
4084;SDS011;2057;50.858;6.572;2023-04-24T06:21:48;5.53;;;2.53;;
4084;SDS011;2057;50.858;6.572;2023-04-24T06:24:16;5.17;;;2.77;;
4084;SDS011;2057;50.858;6.572;2023-04-24T06:26:41;8.67;;;3.73;;
4084;SDS011;2057;50.858;6.572;2023-04-24T06:29:07;6.77;;;3.57;;
4084;SDS011;2057;50.858;6.572;2023-04-24T06:31:32;5.63;;;3.80;;
4084;SDS011;2057;50.858;6.572;2023-04-24T06:34:02;6.95;;;4.70;;
4084;SDS011;2057;50.858;6.572;2023-04-24T06:36:28;9.07;;;3.90;;
4084;SDS011;2057;50.858;6.572;2023-04-24T06:38:53;5.00;;;4.03;;
4084;SDS011;2057;50.858;6.572;2023-04-24T06:41:19;4.77;;;3.50;;
4084;SDS011;2057;50.858;6.572;2023-04-24T06:43:44;5.57;;;4.00;;
4084;SDS011;2057;50.858;6.572;2023-04-24T06:46:09;5.17;;;3.50;;
4084;SDS011;2057;50.858;6.572;2023-04-24T06:48:35;5.33;;;4.03;;
4084;SDS011;2057;50.858;6.572;2023-04-24T06:51:03;4.30;;;2.80;;
4084;SDS011;2057;50.858;6.572;2023-04-24T06:53:31;4.63;;;4.13;;
4084;SDS011;2057;50.858;6.572;2023-04-24T06:55:56;4.13;;;3.53;;
4084;SDS011;2057;50.858;6.572;2023-04-24T06:58:21;5.70;;;3.67;;
4084;SDS011;2057;50.858;6.572;2023-04-24T07:00:47;4.93;;;3.63;;
4084;SDS011;2057;50.858;6.572;2023-04-24T07:03:15;6.00;;;4.03;;
4084;SDS011;2057;50.858;6.572;2023-04-24T07:05:40;5.93;;;4.77;;
4084;SDS011;2057;50.858;6.572;2023-04-24T07:08:06;5.10;;;4.60;;
4084;SDS011;2057;50.858;6.572;2023-04-24T07:10:32;6.40;;;4.10;;
4084;SDS011;2057;50.858;6.572;2023-04-24T07:12:59;10.60;;;4.50;;
4084;SDS011;2057;50.858;6.572;2023-04-24T07:15:24;13.23;;;3.60;;
4084;SDS011;2057;50.858;6.572;2023-04-24T07:17:52;4.70;;;4.20;;
4084;SDS011;2057;50.858;6.572;2023-04-24T07:20:17;6.60;;;3.00;;
4084;SDS011;2057;50.858;6.572;2023-04-24T07:22:42;2.53;;;2.33;;
4084;SDS011;2057;50.858;6.572;2023-04-24T07:25:08;9.60;;;3.17;;
4084;SDS011;2057;50.858;6.572;2023-04-24T07:27:34;2.10;;;2.00;;
4084;SDS011;2057;50.858;6.572;2023-04-24T07:30:05;2.60;;;1.92;;
4084;SDS011;2057;50.858;6.572;2023-04-24T07:32:31;1.70;;;1.60;;
4084;SDS011;2057;50.858;6.572;2023-04-24T07:34:57;4.23;;;2.03;;
4084;SDS011;2057;50.858;6.572;2023-04-24T07:37:24;4.33;;;1.87;;
4084;SDS011;2057;50.858;6.572;2023-04-24T07:39:50;2.97;;;2.15;;
4084;SDS011;2057;50.858;6.572;2023-04-24T07:42:15;4.10;;;2.63;;
4084;SDS011;2057;50.858;6.572;2023-04-24T07:44:41;6.03;;;3.23;;
4084;SDS011;2057;50.858;6.572;2023-04-24T07:47:06;5.90;;;2.70;;
4084;SDS011;2057;50.858;6.572;2023-04-24T07:49:31;3.70;;;2.70;;
4084;SDS011;2057;50.858;6.572;2023-04-24T07:51:59;8.27;;;3.23;;
4084;SDS011;2057;50.858;6.572;2023-04-24T07:54:25;3.65;;;2.85;;
4084;SDS011;2057;50.858;6.572;2023-04-24T07:56:50;4.87;;;3.57;;
4084;SDS011;2057;50.858;6.572;2023-04-24T07:59:16;5.03;;;3.80;;
4084;SDS011;2057;50.858;6.572;2023-04-24T08:01:41;7.23;;;4.33;;
4084;SDS011;2057;50.858;6.572;2023-04-24T08:04:07;5.13;;;3.97;;
4084;SDS011;2057;50.858;6.572;2023-04-24T08:06:32;9.57;;;4.27;;
4084;SDS011;2057;50.858;6.572;2023-04-24T08:08:58;3.90;;;3.57;;
4084;SDS011;2057;50.858;6.572;2023-04-24T08:11:23;7.93;;;4.57;;
4084;SDS011;2057;50.858;6.572;2023-04-24T08:13:49;3.78;;;3.22;;
4084;SDS011;2057;50.858;6.572;2023-04-24T08:16:15;5.47;;;3.73;;
4084;SDS011;2057;50.858;6.572;2023-04-24T08:18:40;6.30;;;2.73;;
4084;SDS011;2057;50.858;6.572;2023-04-24T08:21:06;5.27;;;3.00;;
4084;SDS011;2057;50.858;6.572;2023-04-24T08:23:31;6.00;;;3.73;;
4084;SDS011;2057;50.858;6.572;2023-04-24T08:25:56;6.10;;;4.10;;
4084;SDS011;2057;50.858;6.572;2023-04-24T08:28:22;4.03;;;3.10;;
4084;SDS011;2057;50.858;6.572;2023-04-24T08:30:48;4.13;;;3.10;;
4084;SDS011;2057;50.858;6.572;2023-04-24T08:33:17;7.80;;;3.60;;
4084;SDS011;2057;50.858;6.572;2023-04-24T08:35:43;4.57;;;3.40;;
4084;SDS011;2057;50.858;6.572;2023-04-24T08:38:08;7.20;;;3.97;;
4084;SDS011;2057;50.858;6.572;2023-04-24T08:40:33;6.30;;;4.27;;
4084;SDS011;2057;50.858;6.572;2023-04-24T08:42:59;8.70;;;5.18;;
4084;SDS011;2057;50.858;6.572;2023-04-24T08:45:25;5.83;;;4.63;;
4084;SDS011;2057;50.858;6.572;2023-04-24T08:47:52;5.23;;;4.73;;
4084;SDS011;2057;50.858;6.572;2023-04-24T08:50:20;7.85;;;5.93;;
4084;SDS011;2057;50.858;6.572;2023-04-24T08:52:47;9.75;;;4.80;;
4084;SDS011;2057;50.858;6.572;2023-04-24T08:55:15;8.65;;;5.10;;
4084;SDS011;2057;50.858;6.572;2023-04-24T08:57:43;5.30;;;4.07;;
4084;SDS011;2057;50.858;6.572;2023-04-24T09:00:10;11.10;;;5.05;;
4084;SDS011;2057;50.858;6.572;2023-04-24T09:02:36;16.15;;;5.70;;
4084;SDS011;2057;50.858;6.572;2023-04-24T09:05:01;9.07;;;5.67;;
4084;SDS011;2057;50.858;6.572;2023-04-24T09:07:28;14.18;;;6.68;;
4084;SDS011;2057;50.858;6.572;2023-04-24T09:10:01;12.27;;;6.10;;
4084;SDS011;2057;50.858;6.572;2023-04-24T09:12:27;15.73;;;6.25;;
4084;SDS011;2057;50.858;6.572;2023-04-24T09:14:52;6.30;;;4.40;;
4084;SDS011;2057;50.858;6.572;2023-04-24T09:17:20;6.68;;;5.43;;
4084;SDS011;2057;50.858;6.572;2023-04-24T09:19:47;11.93;;;5.88;;
4084;SDS011;2057;50.858;6.572;2023-04-24T09:22:16;9.90;;;5.80;;
4084;SDS011;2057;50.858;6.572;2023-04-24T09:24:42;9.05;;;6.95;;
4084;SDS011;2057;50.858;6.572;2023-04-24T09:27:07;9.80;;;5.20;;
4084;SDS011;2057;50.858;6.572;2023-04-24T09:29:32;6.30;;;5.00;;
4084;SDS011;2057;50.858;6.572;2023-04-24T09:31:58;14.10;;;7.10;;
4084;SDS011;2057;50.858;6.572;2023-04-24T09:34:27;8.77;;;5.28;;
4084;SDS011;2057;50.858;6.572;2023-04-24T09:36:55;7.13;;;5.30;;
4084;SDS011;2057;50.858;6.572;2023-04-24T09:39:20;13.30;;;6.77;;
4084;SDS011;2057;50.858;6.572;2023-04-24T09:44:18;12.23;;;5.70;;
4084;SDS011;2057;50.858;6.572;2023-04-24T09:46:55;12.45;;;5.90;;
4084;SDS011;2057;50.858;6.572;2023-04-24T09:49:22;8.02;;;5.72;;
4084;SDS011;2057;50.858;6.572;2023-04-24T09:52:02;8.55;;;5.60;;
4084;SDS011;2057;50.858;6.572;2023-04-24T09:54:32;9.80;;;5.75;;
4084;SDS011;2057;50.858;6.572;2023-04-24T09:56:58;11.60;;;5.53;;
4084;SDS011;2057;50.858;6.572;2023-04-24T09:59:25;12.40;;;5.67;;
4084;SDS011;2057;50.858;6.572;2023-04-24T10:01:50;26.07;;;5.63;;
4084;SDS011;2057;50.858;6.572;2023-04-24T10:04:23;16.53;;;6.53;;
4084;SDS011;2057;50.858;6.572;2023-04-24T10:06:51;8.70;;;5.70;;
4084;SDS011;2057;50.858;6.572;2023-04-24T10:09:19;7.07;;;4.77;;
4084;SDS011;2057;50.858;6.572;2023-04-24T10:11:47;11.70;;;6.07;;
4084;SDS011;2057;50.858;6.572;2023-04-24T10:14:14;16.53;;;5.97;;
4084;SDS011;2057;50.858;6.572;2023-04-24T10:16:43;15.13;;;5.57;;
4084;SDS011;2057;50.858;6.572;2023-04-24T10:19:09;10.07;;;5.40;;
4084;SDS011;2057;50.858;6.572;2023-04-24T10:21:36;18.43;;;6.50;;
4084;SDS011;2057;50.858;6.572;2023-04-24T10:24:07;12.00;;;5.87;;
4084;SDS011;2057;50.858;6.572;2023-04-24T10:26:33;9.20;;;5.53;;
4084;SDS011;2057;50.858;6.572;2023-04-24T10:28:59;11.20;;;6.87;;
4084;SDS011;2057;50.858;6.572;2023-04-24T10:31:26;16.67;;;7.10;;
4084;SDS011;2057;50.858;6.572;2023-04-24T10:33:52;24.50;;;7.13;;
4084;SDS011;2057;50.858;6.572;2023-04-24T10:36:19;18.57;;;7.87;;
4084;SDS011;2057;50.858;6.572;2023-04-24T10:38:48;12.03;;;6.80;;
4084;SDS011;2057;50.858;6.572;2023-04-24T10:41:15;14.70;;;7.30;;
4084;SDS011;2057;50.858;6.572;2023-04-24T10:43:48;14.90;;;7.50;;
4084;SDS011;2057;50.858;6.572;2023-04-24T10:46:29;26.73;;;7.57;;
4084;SDS011;2057;50.858;6.572;2023-04-24T10:48:55;16.40;;;7.10;;
4084;SDS011;2057;50.858;6.572;2023-04-24T10:51:21;11.40;;;6.20;;
4084;SDS011;2057;50.858;6.572;2023-04-24T10:53:50;15.03;;;6.33;;
4084;SDS011;2057;50.858;6.572;2023-04-24T10:56:18;17.33;;;5.50;;
4084;SDS011;2057;50.858;6.572;2023-04-24T10:58:45;17.60;;;6.90;;
4084;SDS011;2057;50.858;6.572;2023-04-24T11:01:30;10.40;;;5.20;;
4084;SDS011;2057;50.858;6.572;2023-04-24T11:03:58;34.67;;;8.00;;
4084;SDS011;2057;50.858;6.572;2023-04-24T11:06:31;13.23;;;6.63;;
4084;SDS011;2057;50.858;6.572;2023-04-24T11:09:03;13.33;;;5.90;;
4084;SDS011;2057;50.858;6.572;2023-04-24T11:11:33;13.27;;;6.43;;
4084;SDS011;2057;50.858;6.572;2023-04-24T11:14:01;15.67;;;5.33;;
4084;SDS011;2057;50.858;6.572;2023-04-24T11:16:33;15.23;;;6.13;;
4084;SDS011;2057;50.858;6.572;2023-04-24T11:19:07;14.13;;;5.50;;
4084;SDS011;2057;50.858;6.572;2023-04-24T11:27:15;14.33;;;4.83;;
4084;SDS011;2057;50.858;6.572;2023-04-24T11:30:00;19.73;;;6.80;;
4084;SDS011;2057;50.858;6.572;2023-04-24T11:37:38;13.23;;;6.73;;
4084;SDS011;2057;50.858;6.572;2023-04-24T11:40:06;24.10;;;8.10;;
4084;SDS011;2057;50.858;6.572;2023-04-24T11:42:39;15.57;;;8.33;;
4084;SDS011;2057;50.858;6.572;2023-04-24T11:45:07;14.53;;;8.30;;
4084;SDS011;2057;50.858;6.572;2023-04-24T11:47:35;32.80;;;9.30;;
4084;SDS011;2057;50.858;6.572;2023-04-24T11:50:01;28.67;;;9.07;;
4084;SDS011;2057;50.858;6.572;2023-04-24T11:52:28;19.50;;;8.43;;
4084;SDS011;2057;50.858;6.572;2023-04-24T11:54:54;15.10;;;7.83;;
4084;SDS011;2057;50.858;6.572;2023-04-24T11:57:20;20.10;;;8.37;;
4084;SDS011;2057;50.858;6.572;2023-04-24T11:59:47;22.90;;;8.90;;
4084;SDS011;2057;50.858;6.572;2023-04-24T12:02:25;13.80;;;6.67;;
4084;SDS011;2057;50.858;6.572;2023-04-24T12:04:52;20.50;;;8.03;;
4084;SDS011;2057;50.858;6.572;2023-04-24T12:07:19;19.87;;;7.03;;
4084;SDS011;2057;50.858;6.572;2023-04-24T12:10:03;18.90;;;6.33;;
4084;SDS011;2057;50.858;6.572;2023-04-24T12:12:32;10.07;;;6.20;;
4084;SDS011;2057;50.858;6.572;2023-04-24T12:14:57;16.70;;;6.00;;
4084;SDS011;2057;50.858;6.572;2023-04-24T12:17:27;17.93;;;6.57;;
4084;SDS011;2057;50.858;6.572;2023-04-24T12:20:05;10.33;;;6.13;;
4084;SDS011;2057;50.858;6.572;2023-04-24T12:25:15;21.40;;;6.37;;
4084;SDS011;2057;50.858;6.572;2023-04-24T12:27:46;15.63;;;5.87;;
4084;SDS011;2057;50.858;6.572;2023-04-24T12:30:17;11.63;;;5.67;;
4084;SDS011;2057;50.858;6.572;2023-04-24T12:32:44;11.43;;;6.47;;
4084;SDS011;2057;50.858;6.572;2023-04-24T12:35:21;18.53;;;5.60;;
4084;SDS011;2057;50.858;6.572;2023-04-24T12:37:48;28.47;;;5.90;;
4084;SDS011;2057;50.858;6.572;2023-04-24T12:40:14;15.37;;;7.10;;
4084;SDS011;2057;50.858;6.572;2023-04-24T12:42:42;11.40;;;6.27;;
4084;SDS011;2057;50.858;6.572;2023-04-24T12:45:09;20.83;;;6.73;;
4084;SDS011;2057;50.858;6.572;2023-04-24T12:47:37;11.77;;;6.17;;
4084;SDS011;2057;50.858;6.572;2023-04-24T12:50:03;25.83;;;8.03;;
4084;SDS011;2057;50.858;6.572;2023-04-24T12:52:29;13.67;;;5.50;;
4084;SDS011;2057;50.858;6.572;2023-04-24T12:54:58;17.73;;;7.97;;
4084;SDS011;2057;50.858;6.572;2023-04-24T12:57:25;18.00;;;5.87;;
4084;SDS011;2057;50.858;6.572;2023-04-24T12:59:54;9.27;;;5.80;;
4084;SDS011;2057;50.858;6.572;2023-04-24T13:02:27;16.40;;;6.40;;
4084;SDS011;2057;50.858;6.572;2023-04-24T13:04:55;14.63;;;6.90;;
4084;SDS011;2057;50.858;6.572;2023-04-24T13:07:20;11.50;;;6.00;;
4084;SDS011;2057;50.858;6.572;2023-04-24T13:09:47;12.10;;;5.40;;
4084;SDS011;2057;50.858;6.572;2023-04-24T13:12:14;16.73;;;7.03;;
4084;SDS011;2057;50.858;6.572;2023-04-24T13:14:40;22.57;;;6.63;;
4084;SDS011;2057;50.858;6.572;2023-04-24T13:17:06;16.73;;;7.47;;
4084;SDS011;2057;50.858;6.572;2023-04-24T13:19:39;14.20;;;7.43;;
4084;SDS011;2057;50.858;6.572;2023-04-24T13:22:09;22.43;;;8.40;;
4084;SDS011;2057;50.858;6.572;2023-04-24T13:24:35;11.07;;;6.37;;
4084;SDS011;2057;50.858;6.572;2023-04-24T13:27:00;16.77;;;6.60;;
4084;SDS011;2057;50.858;6.572;2023-04-24T13:29:27;14.27;;;6.97;;
4084;SDS011;2057;50.858;6.572;2023-04-24T13:31:53;12.40;;;6.47;;
4084;SDS011;2057;50.858;6.572;2023-04-24T13:34:20;12.27;;;6.70;;
4084;SDS011;2057;50.858;6.572;2023-04-24T13:36:46;10.07;;;5.77;;
4084;SDS011;2057;50.858;6.572;2023-04-24T13:39:11;16.07;;;7.70;;
4084;SDS011;2057;50.858;6.572;2023-04-24T13:41:40;22.70;;;6.77;;
4084;SDS011;2057;50.858;6.572;2023-04-24T13:44:06;17.70;;;7.30;;
4084;SDS011;2057;50.858;6.572;2023-04-24T13:46:31;12.80;;;7.47;;
4084;SDS011;2057;50.858;6.572;2023-04-24T13:48:57;14.43;;;7.50;;
4084;SDS011;2057;50.858;6.572;2023-04-24T13:51:25;19.20;;;6.57;;
4084;SDS011;2057;50.858;6.572;2023-04-24T13:53:53;10.47;;;6.20;;
4084;SDS011;2057;50.858;6.572;2023-04-24T13:56:19;16.10;;;6.37;;
4084;SDS011;2057;50.858;6.572;2023-04-24T13:58:45;15.57;;;6.60;;
4084;SDS011;2057;50.858;6.572;2023-04-24T14:01:13;13.90;;;6.90;;
4084;SDS011;2057;50.858;6.572;2023-04-24T14:03:40;13.70;;;5.40;;
4084;SDS011;2057;50.858;6.572;2023-04-24T14:06:06;17.97;;;5.90;;
4084;SDS011;2057;50.858;6.572;2023-04-24T14:08:31;9.50;;;5.20;;
4084;SDS011;2057;50.858;6.572;2023-04-24T14:10:57;16.60;;;5.70;;
4084;SDS011;2057;50.858;6.572;2023-04-24T14:13:22;9.53;;;5.60;;
4084;SDS011;2057;50.858;6.572;2023-04-24T14:15:51;9.17;;;5.50;;
4084;SDS011;2057;50.858;6.572;2023-04-24T14:18:17;10.57;;;5.47;;
4084;SDS011;2057;50.858;6.572;2023-04-24T14:20:43;9.33;;;5.03;;
4084;SDS011;2057;50.858;6.572;2023-04-24T14:23:09;13.13;;;4.20;;
4084;SDS011;2057;50.858;6.572;2023-04-24T14:25:34;9.63;;;5.07;;
4084;SDS011;2057;50.858;6.572;2023-04-24T14:27:59;12.73;;;6.40;;
4084;SDS011;2057;50.858;6.572;2023-04-24T14:30:25;13.70;;;5.50;;
4084;SDS011;2057;50.858;6.572;2023-04-24T14:32:50;17.57;;;6.60;;
4084;SDS011;2057;50.858;6.572;2023-04-24T14:35:15;11.87;;;6.20;;
4084;SDS011;2057;50.858;6.572;2023-04-24T14:37:41;18.80;;;7.10;;
4084;SDS011;2057;50.858;6.572;2023-04-24T14:40:07;16.50;;;5.70;;
4084;SDS011;2057;50.858;6.572;2023-04-24T14:42:34;9.00;;;5.23;;
4084;SDS011;2057;50.858;6.572;2023-04-24T14:45:00;16.47;;;6.33;;
4084;SDS011;2057;50.858;6.572;2023-04-24T14:47:28;11.87;;;5.40;;
4084;SDS011;2057;50.858;6.572;2023-04-24T14:49:54;10.00;;;5.13;;
4084;SDS011;2057;50.858;6.572;2023-04-24T14:52:19;11.60;;;4.70;;
4084;SDS011;2057;50.858;6.572;2023-04-24T14:54:45;11.40;;;4.77;;
4084;SDS011;2057;50.858;6.572;2023-04-24T14:57:10;17.93;;;5.30;;
4084;SDS011;2057;50.858;6.572;2023-04-24T14:59:35;9.60;;;5.40;;
4084;SDS011;2057;50.858;6.572;2023-04-24T15:02:01;6.87;;;4.70;;
4084;SDS011;2057;50.858;6.572;2023-04-24T15:04:27;8.23;;;4.17;;
4084;SDS011;2057;50.858;6.572;2023-04-24T15:06:53;8.50;;;4.83;;
4084;SDS011;2057;50.858;6.572;2023-04-24T15:09:20;13.60;;;5.00;;
4084;SDS011;2057;50.858;6.572;2023-04-24T15:11:46;10.50;;;5.20;;
4084;SDS011;2057;50.858;6.572;2023-04-24T15:14:12;16.87;;;6.20;;
4084;SDS011;2057;50.858;6.572;2023-04-24T15:16:38;10.00;;;5.80;;
4084;SDS011;2057;50.858;6.572;2023-04-24T15:19:05;13.83;;;5.70;;
4084;SDS011;2057;50.858;6.572;2023-04-24T15:21:31;19.23;;;6.03;;
4084;SDS011;2057;50.858;6.572;2023-04-24T15:23:57;10.70;;;5.77;;
4084;SDS011;2057;50.858;6.572;2023-04-24T15:26:22;15.33;;;6.50;;
4084;SDS011;2057;50.858;6.572;2023-04-24T15:28:48;11.77;;;6.67;;
4084;SDS011;2057;50.858;6.572;2023-04-24T15:31:16;12.60;;;5.93;;
4084;SDS011;2057;50.858;6.572;2023-04-24T15:33:42;10.00;;;6.20;;
4084;SDS011;2057;50.858;6.572;2023-04-24T15:36:07;23.50;;;7.60;;
4084;SDS011;2057;50.858;6.572;2023-04-24T15:38:33;8.97;;;5.87;;
4084;SDS011;2057;50.858;6.572;2023-04-24T15:40:58;12.10;;;6.00;;
4084;SDS011;2057;50.858;6.572;2023-04-24T15:43:23;10.50;;;5.40;;
4084;SDS011;2057;50.858;6.572;2023-04-24T15:45:49;13.83;;;6.40;;